sensor_id;sensor_type;location;lat;lon;timestamp;pressure;altitude;pressure_sealevel;temperature;humidity
27202;BME280;14717;46.924;15.474;2023-04-09T00:02:10;98446.19;;;5.31;98.40
27202;BME280;14717;46.924;15.474;2023-04-09T00:04:36;98443.69;;;5.30;98.27
27202;BME280;14717;46.924;15.474;2023-04-09T00:07:01;98456.88;;;5.33;98.28
27202;BME280;14717;46.924;15.474;2023-04-09T00:09:26;98447.09;;;5.37;98.17
27202;BME280;14717;46.924;15.474;2023-04-09T00:11:52;98444.94;;;5.39;98.22
27202;BME280;14717;46.924;15.474;2023-04-09T00:14:17;98443.88;;;5.40;98.62
27202;BME280;14717;46.924;15.474;2023-04-09T00:16:42;98436.69;;;5.22;98.38
27202;BME280;14717;46.924;15.474;2023-04-09T00:19:08;98444.41;;;5.25;99.06
27202;BME280;14717;46.924;15.474;2023-04-09T00:21:33;98433.00;;;5.17;99.62
27202;BME280;14717;46.924;15.474;2023-04-09T00:23:58;98447.38;;;4.96;99.25
27202;BME280;14717;46.924;15.474;2023-04-09T00:26:24;98433.31;;;5.04;100.00
27202;BME280;14717;46.924;15.474;2023-04-09T00:28:50;98434.00;;;5.11;100.00
27202;BME280;14717;46.924;15.474;2023-04-09T00:31:15;98432.44;;;5.15;100.00
27202;BME280;14717;46.924;15.474;2023-04-09T00:33:41;98422.53;;;5.14;99.57
27202;BME280;14717;46.924;15.474;2023-04-09T00:36:06;98420.56;;;5.09;99.85
27202;BME280;14717;46.924;15.474;2023-04-09T00:38:32;98423.88;;;5.11;100.00
27202;BME280;14717;46.924;15.474;2023-04-09T00:40:57;98433.00;;;5.17;100.00
27202;BME280;14717;46.924;15.474;2023-04-09T00:43:22;98429.22;;;5.18;100.00
27202;BME280;14717;46.924;15.474;2023-04-09T00:45:48;98432.09;;;5.11;100.00
27202;BME280;14717;46.924;15.474;2023-04-09T00:48:14;98435.06;;;5.10;100.00
27202;BME280;14717;46.924;15.474;2023-04-09T00:50:41;98428.63;;;5.16;100.00
27202;BME280;14717;46.924;15.474;2023-04-09T00:53:07;98434.13;;;5.16;100.00
27202;BME280;14717;46.924;15.474;2023-04-09T00:55:33;98426.63;;;5.11;100.00
27202;BME280;14717;46.924;15.474;2023-04-09T00:58:00;98427.19;;;5.13;100.00
27202;BME280;14717;46.924;15.474;2023-04-09T01:00:25;98423.53;;;5.08;100.00
27202;BME280;14717;46.924;15.474;2023-04-09T01:02:51;98419.97;;;5.07;100.00
27202;BME280;14717;46.924;15.474;2023-04-09T01:05:18;98416.88;;;5.04;100.00
27202;BME280;14717;46.924;15.474;2023-04-09T01:08:02;98423.22;;;5.05;100.00
27202;BME280;14717;46.924;15.474;2023-04-09T01:10:41;98416.63;;;5.06;100.00
27202;BME280;14717;46.924;15.474;2023-04-09T01:15:47;98425.00;;;4.99;100.00
27202;BME280;14717;46.924;15.474;2023-04-09T01:21:04;98430.47;;;4.99;100.00
27202;BME280;14717;46.924;15.474;2023-04-09T01:29:08;98430.28;;;4.89;100.00
27202;BME280;14717;46.924;15.474;2023-04-09T01:31:38;98423.84;;;4.95;100.00
27202;BME280;14717;46.924;15.474;2023-04-09T01:34:07;98420.00;;;4.96;100.00
27202;BME280;14717;46.924;15.474;2023-04-09T01:36:34;98427.16;;;4.97;100.00
27202;BME280;14717;46.924;15.474;2023-04-09T01:39:01;98420.72;;;5.03;100.00
27202;BME280;14717;46.924;15.474;2023-04-09T01:41:27;98431.31;;;5.00;100.00
27202;BME280;14717;46.924;15.474;2023-04-09T01:43:55;98425.28;;;4.86;100.00
27202;BME280;14717;46.924;15.474;2023-04-09T01:46:21;98422.16;;;4.94;100.00
27202;BME280;14717;46.924;15.474;2023-04-09T01:48:47;98425.22;;;4.98;100.00
27202;BME280;14717;46.924;15.474;2023-04-09T01:51:13;98420.63;;;4.98;100.00
27202;BME280;14717;46.924;15.474;2023-04-09T01:53:40;98421.69;;;4.97;100.00
27202;BME280;14717;46.924;15.474;2023-04-09T01:56:06;98417.13;;;5.03;100.00
27202;BME280;14717;46.924;15.474;2023-04-09T01:58:32;98413.75;;;5.12;100.00
27202;BME280;14717;46.924;15.474;2023-04-09T02:03:58;98406.13;;;5.14;100.00
27202;BME280;14717;46.924;15.474;2023-04-09T02:08:59;98404.28;;;5.03;100.00
27202;BME280;14717;46.924;15.474;2023-04-09T02:11:28;98405.59;;;5.01;100.00
27202;BME280;14717;46.924;15.474;2023-04-09T02:13:54;98400.69;;;5.03;100.00
27202;BME280;14717;46.924;15.474;2023-04-09T02:16:20;98402.63;;;5.02;100.00
27202;BME280;14717;46.924;15.474;2023-04-09T02:18:52;98409.06;;;4.96;100.00
27202;BME280;14717;46.924;15.474;2023-04-09T02:21:17;98396.78;;;4.99;100.00
27202;BME280;14717;46.924;15.474;2023-04-09T02:23:42;98397.13;;;5.02;100.00
27202;BME280;14717;46.924;15.474;2023-04-09T02:26:08;98397.22;;;5.07;100.00
27202;BME280;14717;46.924;15.474;2023-04-09T02:28:33;98403.19;;;5.04;100.00
27202;BME280;14717;46.924;15.474;2023-04-09T02:30:58;98401.31;;;5.05;100.00
27202;BME280;14717;46.924;15.474;2023-04-09T02:33:24;98414.75;;;5.06;100.00
27202;BME280;14717;46.924;15.474;2023-04-09T02:35:49;98402.13;;;5.05;100.00
27202;BME280;14717;46.924;15.474;2023-04-09T02:38:15;98405.19;;;5.08;100.00
27202;BME280;14717;46.924;15.474;2023-04-09T02:40:40;98411.25;;;5.10;100.00
27202;BME280;14717;46.924;15.474;2023-04-09T02:43:06;98406.69;;;5.00;100.00
27202;BME280;14717;46.924;15.474;2023-04-09T02:45:32;98407.69;;;4.82;100.00
27202;BME280;14717;46.924;15.474;2023-04-09T02:47:57;98408.75;;;4.81;100.00
27202;BME280;14717;46.924;15.474;2023-04-09T02:50:22;98407.09;;;4.80;100.00
27202;BME280;14717;46.924;15.474;2023-04-09T02:52:48;98408.66;;;4.76;100.00
27202;BME280;14717;46.924;15.474;2023-04-09T02:55:13;98401.41;;;4.82;100.00
27202;BME280;14717;46.924;15.474;2023-04-09T02:57:39;98403.38;;;4.86;100.00
27202;BME280;14717;46.924;15.474;2023-04-09T03:00:05;98398.41;;;4.83;100.00
27202;BME280;14717;46.924;15.474;2023-04-09T03:02:31;98395.25;;;4.91;100.00
27202;BME280;14717;46.924;15.474;2023-04-09T03:04:56;98405.34;;;5.02;100.00
27202;BME280;14717;46.924;15.474;2023-04-09T03:07:21;98389.84;;;5.07;100.00
27202;BME280;14717;46.924;15.474;2023-04-09T03:09:47;98391.84;;;5.12;100.00
27202;BME280;14717;46.924;15.474;2023-04-09T03:12:12;98390.22;;;5.11;100.00
27202;BME280;14717;46.924;15.474;2023-04-09T03:14:38;98395.06;;;5.09;100.00
27202;BME280;14717;46.924;15.474;2023-04-09T03:17:03;98390.13;;;5.06;100.00
27202;BME280;14717;46.924;15.474;2023-04-09T03:19:29;98393.72;;;4.95;100.00
27202;BME280;14717;46.924;15.474;2023-04-09T03:21:55;98386.97;;;4.86;100.00
27202;BME280;14717;46.924;15.474;2023-04-09T03:24:20;98385.31;;;4.85;100.00
27202;BME280;14717;46.924;15.474;2023-04-09T03:26:45;98386.13;;;4.86;100.00
27202;BME280;14717;46.924;15.474;2023-04-09T03:29:11;98389.22;;;4.89;100.00
27202;BME280;14717;46.924;15.474;2023-04-09T03:31:36;98385.41;;;4.90;100.00
27202;BME280;14717;46.924;15.474;2023-04-09T03:34:01;98386.09;;;4.97;100.00
27202;BME280;14717;46.924;15.474;2023-04-09T03:36:27;98390.31;;;4.88;100.00
27202;BME280;14717;46.924;15.474;2023-04-09T03:38:52;98379.50;;;4.82;100.00
27202;BME280;14717;46.924;15.474;2023-04-09T03:41:18;98371.25;;;4.65;100.00
27202;BME280;14717;46.924;15.474;2023-04-09T03:43:43;98376.81;;;4.70;100.00
27202;BME280;14717;46.924;15.474;2023-04-09T03:46:16;98380.72;;;4.74;100.00
27202;BME280;14717;46.924;15.474;2023-04-09T03:48:42;98380.47;;;4.76;100.00
27202;BME280;14717;46.924;15.474;2023-04-09T03:51:12;98382.38;;;4.75;100.00
27202;BME280;14717;46.924;15.474;2023-04-09T03:53:38;98381.28;;;4.76;100.00
27202;BME280;14717;46.924;15.474;2023-04-09T03:56:04;98390.84;;;4.74;100.00
27202;BME280;14717;46.924;15.474;2023-04-09T03:58:30;98382.38;;;4.75;100.00
27202;BME280;14717;46.924;15.474;2023-04-09T04:00:55;98387.63;;;4.77;100.00
27202;BME280;14717;46.924;15.474;2023-04-09T04:03:21;98393.91;;;4.77;100.00
27202;BME280;14717;46.924;15.474;2023-04-09T04:05:46;98397.47;;;4.78;100.00
27202;BME280;14717;46.924;15.474;2023-04-09T04:08:11;98394.72;;;4.78;100.00
27202;BME280;14717;46.924;15.474;2023-04-09T04:10:37;98391.16;;;4.77;100.00
27202;BME280;14717;46.924;15.474;2023-04-09T04:13:02;98385.22;;;4.80;100.00
27202;BME280;14717;46.924;15.474;2023-04-09T04:15:27;98401.06;;;4.78;100.00
27202;BME280;14717;46.924;15.474;2023-04-09T04:17:53;98397.22;;;4.79;100.00
27202;BME280;14717;46.924;15.474;2023-04-09T04:20:19;98398.22;;;4.73;100.00
27202;BME280;14717;46.924;15.474;2023-04-09T04:22:44;98393.81;;;4.72;100.00
27202;BME280;14717;46.924;15.474;2023-04-09T04:25:10;98398.91;;;4.80;100.00
27202;BME280;14717;46.924;15.474;2023-04-09T04:27:35;98402.78;;;4.84;100.00
27202;BME280;14717;46.924;15.474;2023-04-09T04:30:01;98393.28;;;4.87;100.00
27202;BME280;14717;46.924;15.474;2023-04-09T04:32:27;98397.41;;;4.89;100.00
27202;BME280;14717;46.924;15.474;2023-04-09T04:34:52;98401.25;;;4.88;100.00
27202;BME280;14717;46.924;15.474;2023-04-09T04:37:18;98408.66;;;4.76;100.00
27202;BME280;14717;46.924;15.474;2023-04-09T04:39:43;98403.78;;;4.78;100.00
27202;BME280;14717;46.924;15.474;2023-04-09T04:42:09;98408.06;;;4.74;100.00
27202;BME280;14717;46.924;15.474;2023-04-09T04:44:34;98401.19;;;4.72;100.00
27202;BME280;14717;46.924;15.474;2023-04-09T04:46:59;98403.69;;;4.73;100.00
27202;BME280;14717;46.924;15.474;2023-04-09T04:49:25;98397.56;;;4.83;100.00
27202;BME280;14717;46.924;15.474;2023-04-09T04:51:50;98404.38;;;4.80;100.00
27202;BME280;14717;46.924;15.474;2023-04-09T04:54:15;98400.63;;;4.70;100.00
27202;BME280;14717;46.924;15.474;2023-04-09T04:56:41;98401.91;;;4.67;100.00
27202;BME280;14717;46.924;15.474;2023-04-09T04:59:06;98402.25;;;4.71;100.00
27202;BME280;14717;46.924;15.474;2023-04-09T05:01:31;98406.38;;;4.85;100.00
27202;BME280;14717;46.924;15.474;2023-04-09T05:03:57;98408.22;;;4.96;100.00
27202;BME280;14717;46.924;15.474;2023-04-09T05:06:22;98405.59;;;5.01;100.00
27202;BME280;14717;46.924;15.474;2023-04-09T05:08:47;98414.75;;;5.06;100.00
27202;BME280;14717;46.924;15.474;2023-04-09T05:11:13;98406.13;;;5.14;100.00
27202;BME280;14717;46.924;15.474;2023-04-09T05:13:40;98415.63;;;5.23;100.00
27202;BME280;14717;46.924;15.474;2023-04-09T05:16:06;98404.75;;;5.28;100.00
27202;BME280;14717;46.924;15.474;2023-04-09T05:18:31;98410.81;;;5.30;100.00
27202;BME280;14717;46.924;15.474;2023-04-09T05:20:57;98419.69;;;5.37;100.00
27202;BME280;14717;46.924;15.474;2023-04-09T05:23:22;98415.03;;;5.37;100.00
27202;BME280;14717;46.924;15.474;2023-04-09T05:25:48;98419.47;;;5.38;100.00
27202;BME280;14717;46.924;15.474;2023-04-09T05:28:14;98413.50;;;5.41;100.00
27202;BME280;14717;46.924;15.474;2023-04-09T05:30:44;98422.63;;;5.47;100.00
27202;BME280;14717;46.924;15.474;2023-04-09T05:33:09;98424.78;;;5.45;100.00
27202;BME280;14717;46.924;15.474;2023-04-09T05:35:37;98411.72;;;5.35;100.00
27202;BME280;14717;46.924;15.474;2023-04-09T05:38:03;98419.78;;;5.42;100.00
27202;BME280;14717;46.924;15.474;2023-04-09T05:40:28;98424.97;;;5.54;100.00
27202;BME280;14717;46.924;15.474;2023-04-09T05:42:53;98428.38;;;5.61;100.00
27202;BME280;14717;46.924;15.474;2023-04-09T05:45:19;98428.38;;;5.61;100.00
27202;BME280;14717;46.924;15.474;2023-04-09T05:47:44;98437.16;;;5.63;100.00
27202;BME280;14717;46.924;15.474;2023-04-09T05:50:09;98434.13;;;5.76;100.00
27202;BME280;14717;46.924;15.474;2023-04-09T05:52:36;98441.28;;;5.77;100.00
27202;BME280;14717;46.924;15.474;2023-04-09T05:55:01;98434.63;;;5.73;99.57
27202;BME280;14717;46.924;15.474;2023-04-09T05:57:26;98443.91;;;5.72;99.62
27202;BME280;14717;46.924;15.474;2023-04-09T05:59:54;98432.50;;;5.75;99.67
27202;BME280;14717;46.924;15.474;2023-04-09T06:02:19;98439.03;;;5.74;99.42
27202;BME280;14717;46.924;15.474;2023-04-09T06:04:45;98436.13;;;5.81;99.38
27202;BME280;14717;46.924;15.474;2023-04-09T06:07:10;98438.22;;;5.90;100.00
27202;BME280;14717;46.924;15.474;2023-04-09T06:09:35;98441.06;;;5.95;99.84
27202;BME280;14717;46.924;15.474;2023-04-09T06:12:02;98440.13;;;6.06;98.23
27202;BME280;14717;46.924;15.474;2023-04-09T06:14:28;98434.97;;;6.09;98.17
27202;BME280;14717;46.924;15.474;2023-04-09T06:16:53;98437.59;;;6.21;98.50
27202;BME280;14717;46.924;15.474;2023-04-09T06:19:19;98440.44;;;6.26;98.51
27202;BME280;14717;46.924;15.474;2023-04-09T06:21:44;98442.75;;;6.34;96.96
27202;BME280;14717;46.924;15.474;2023-04-09T06:24:10;98434.03;;;6.36;97.09
27202;BME280;14717;46.924;15.474;2023-04-09T06:26:35;98432.09;;;6.37;96.59
27202;BME280;14717;46.924;15.474;2023-04-09T06:29:01;98439.84;;;6.40;96.52
27202;BME280;14717;46.924;15.474;2023-04-09T06:31:26;98440.41;;;6.42;95.58
27202;BME280;14717;46.924;15.474;2023-04-09T06:33:51;98441.69;;;6.35;95.54
27202;BME280;14717;46.924;15.474;2023-04-09T06:36:17;98441.69;;;6.35;96.17
27202;BME280;14717;46.924;15.474;2023-04-09T06:38:42;98442.09;;;6.27;95.19
27202;BME280;14717;46.924;15.474;2023-04-09T06:41:07;98444.34;;;6.30;96.14
27202;BME280;14717;46.924;15.474;2023-04-09T06:43:33;98445.75;;;6.32;95.25
27202;BME280;14717;46.924;15.474;2023-04-09T06:45:58;98453.66;;;6.29;94.64
27202;BME280;14717;46.924;15.474;2023-04-09T06:48:24;98454.53;;;6.34;93.77
27202;BME280;14717;46.924;15.474;2023-04-09T06:50:49;98452.72;;;6.39;94.47
27202;BME280;14717;46.924;15.474;2023-04-09T06:53:14;98455.97;;;6.36;95.56
27202;BME280;14717;46.924;15.474;2023-04-09T06:55:40;98456.22;;;6.35;95.57
27202;BME280;14717;46.924;15.474;2023-04-09T06:58:06;98451.31;;;6.21;95.14
27202;BME280;14717;46.924;15.474;2023-04-09T07:00:31;98458.06;;;6.30;95.45
27202;BME280;14717;46.924;15.474;2023-04-09T07:02:57;98465.88;;;6.37;93.68
27202;BME280;14717;46.924;15.474;2023-04-09T07:05:22;98472.44;;;6.36;92.36
27202;BME280;14717;46.924;15.474;2023-04-09T07:07:48;98474.84;;;6.33;91.43
27202;BME280;14717;46.924;15.474;2023-04-09T07:10:13;98469.38;;;6.33;92.65
27202;BME280;14717;46.924;15.474;2023-04-09T07:12:39;98487.13;;;6.31;92.41
27202;BME280;14717;46.924;15.474;2023-04-09T07:15:05;98487.63;;;6.28;93.15
27202;BME280;14717;46.924;15.474;2023-04-09T07:17:31;98482.84;;;6.35;92.13
27202;BME280;14717;46.924;15.474;2023-04-09T07:19:57;98485.09;;;6.37;92.00
27202;BME280;14717;46.924;15.474;2023-04-09T07:22:25;98482.84;;;6.35;90.57
27202;BME280;14717;46.924;15.474;2023-04-09T07:24:51;98486.16;;;6.36;91.02
27202;BME280;14717;46.924;15.474;2023-04-09T07:27:20;98488.91;;;6.36;90.93
27202;BME280;14717;46.924;15.474;2023-04-09T07:29:46;98490.03;;;6.40;90.83
27202;BME280;14717;46.924;15.474;2023-04-09T07:32:12;98491.13;;;6.39;89.26
27202;BME280;14717;46.924;15.474;2023-04-09T07:34:37;98498.28;;;6.40;89.52
27202;BME280;14717;46.924;15.474;2023-04-09T07:37:03;98491.78;;;6.46;88.84
27202;BME280;14717;46.924;15.474;2023-04-09T07:39:28;98498.44;;;6.50;88.97
27202;BME280;14717;46.924;15.474;2023-04-09T07:41:53;98505.09;;;6.54;88.45
27202;BME280;14717;46.924;15.474;2023-04-09T07:44:19;98502.91;;;6.56;89.59
27202;BME280;14717;46.924;15.474;2023-04-09T07:46:44;98499.94;;;6.41;91.23
27202;BME280;14717;46.924;15.474;2023-04-09T07:49:09;98505.50;;;6.46;92.85
27202;BME280;14717;46.924;15.474;2023-04-09T07:51:35;98500.34;;;6.50;90.53
27202;BME280;14717;46.924;15.474;2023-04-09T07:54:00;98504.13;;;6.65;90.84
27202;BME280;14717;46.924;15.474;2023-04-09T07:56:26;98507.03;;;6.75;89.21
27202;BME280;14717;46.924;15.474;2023-04-09T07:58:51;98510.88;;;6.74;89.40
27202;BME280;14717;46.924;15.474;2023-04-09T08:01:16;98504.50;;;6.90;89.56
27202;BME280;14717;46.924;15.474;2023-04-09T08:03:42;98504.81;;;6.72;90.24
27202;BME280;14717;46.924;15.474;2023-04-09T08:06:07;98508.75;;;6.43;92.00
27202;BME280;14717;46.924;15.474;2023-04-09T08:08:33;98515.03;;;6.60;92.31
27202;BME280;14717;46.924;15.474;2023-04-09T08:10:59;98513.63;;;6.74;90.29
27202;BME280;14717;46.924;15.474;2023-04-09T08:13:24;98511.72;;;6.58;90.94
27202;BME280;14717;46.924;15.474;2023-04-09T08:15:49;98521.16;;;6.46;91.80
27202;BME280;14717;46.924;15.474;2023-04-09T08:18:15;98527.34;;;6.74;90.24
27202;BME280;14717;46.924;15.474;2023-04-09T08:20:40;98517.16;;;6.91;89.67
27202;BME280;14717;46.924;15.474;2023-04-09T08:23:09;98529.28;;;6.95;88.21
27202;BME280;14717;46.924;15.474;2023-04-09T08:25:35;98517.78;;;6.98;88.86
27202;BME280;14717;46.924;15.474;2023-04-09T08:28:00;98522.59;;;7.07;86.89
27202;BME280;14717;46.924;15.474;2023-04-09T08:30:26;98516.84;;;7.09;85.61
27202;BME280;14717;46.924;15.474;2023-04-09T08:32:51;98525.53;;;7.01;86.00
27202;BME280;14717;46.924;15.474;2023-04-09T08:35:17;98523.50;;;7.13;86.86
27202;BME280;14717;46.924;15.474;2023-04-09T08:37:43;98527.47;;;7.21;85.90
27202;BME280;14717;46.924;15.474;2023-04-09T08:40:10;98530.03;;;7.28;85.49
27202;BME280;14717;46.924;15.474;2023-04-09T08:42:42;98538.22;;;6.85;87.22
27202;BME280;14717;46.924;15.474;2023-04-09T08:45:08;98531.59;;;7.03;89.07
27202;BME280;14717;46.924;15.474;2023-04-09T08:47:35;98537.69;;;6.88;86.85
27202;BME280;14717;46.924;15.474;2023-04-09T08:50:01;98543.47;;;6.87;87.32
27202;BME280;14717;46.924;15.474;2023-04-09T08:52:33;98539.41;;;7.11;89.51
27202;BME280;14717;46.924;15.474;2023-04-09T08:54:59;98542.84;;;7.22;89.86
27202;BME280;14717;46.924;15.474;2023-04-09T08:57:25;98545.66;;;7.27;89.18
27202;BME280;14717;46.924;15.474;2023-04-09T08:59:51;98542.28;;;7.20;88.38
27202;BME280;14717;46.924;15.474;2023-04-09T09:02:16;98546.44;;;7.23;87.33
27202;BME280;14717;46.924;15.474;2023-04-09T09:04:49;98551.53;;;7.15;88.02
27202;BME280;14717;46.924;15.474;2023-04-09T09:07:15;98560.81;;;7.09;85.65
27202;BME280;14717;46.924;15.474;2023-04-09T09:09:57;98555.19;;;7.20;88.34
27202;BME280;14717;46.924;15.474;2023-04-09T09:12:42;98555.91;;;6.94;87.37
27202;BME280;14717;46.924;15.474;2023-04-09T09:15:26;98549.44;;;7.00;94.02
27202;BME280;14717;46.924;15.474;2023-04-09T09:17:54;98561.59;;;6.88;94.42
27202;BME280;14717;46.924;15.474;2023-04-09T09:20:21;98554.22;;;6.72;93.29
27202;BME280;14717;46.924;15.474;2023-04-09T09:22:54;98560.13;;;6.80;93.43
27202;BME280;14717;46.924;15.474;2023-04-09T09:25:20;98565.81;;;6.41;91.48
27202;BME280;14717;46.924;15.474;2023-04-09T09:27:50;98549.59;;;6.40;95.78
27202;BME280;14717;46.924;15.474;2023-04-09T09:30:25;98560.22;;;6.36;96.05
27202;BME280;14717;46.924;15.474;2023-04-09T09:32:52;98561.28;;;6.52;97.53
27202;BME280;14717;46.924;15.474;2023-04-09T09:35:18;98563.94;;;6.31;96.67
27202;BME280;14717;46.924;15.474;2023-04-09T09:37:43;98556.50;;;6.26;96.31
27202;BME280;14717;46.924;15.474;2023-04-09T09:40:09;98558.53;;;6.19;96.83
27202;BME280;14717;46.924;15.474;2023-04-09T09:42:35;98564.84;;;6.03;96.99
27202;BME280;14717;46.924;15.474;2023-04-09T09:45:04;98559.16;;;6.21;100.00
27202;BME280;14717;46.924;15.474;2023-04-09T09:47:42;98576.56;;;5.99;99.66
27202;BME280;14717;46.924;15.474;2023-04-09T09:50:08;98569.91;;;5.95;100.00
27202;BME280;14717;46.924;15.474;2023-04-09T09:52:34;98568.66;;;6.02;99.97
27202;BME280;14717;46.924;15.474;2023-04-09T09:55:03;98565.78;;;6.09;100.00
27202;BME280;14717;46.924;15.474;2023-04-09T09:57:30;98568.69;;;6.19;100.00
27202;BME280;14717;46.924;15.474;2023-04-09T10:00:01;98562.69;;;6.05;100.00
27202;BME280;14717;46.924;15.474;2023-04-09T10:02:31;98574.09;;;6.14;100.00
27202;BME280;14717;46.924;15.474;2023-04-09T10:05:00;98561.28;;;6.35;99.68
27202;BME280;14717;46.924;15.474;2023-04-09T10:07:26;98565.88;;;6.46;99.22
27202;BME280;14717;46.924;15.474;2023-04-09T10:09:54;98573.94;;;6.69;100.00
27202;BME280;14717;46.924;15.474;2023-04-09T10:12:21;98568.19;;;6.87;97.36
27202;BME280;14717;46.924;15.474;2023-04-09T10:14:48;98563.97;;;7.01;93.89
27202;BME280;14717;46.924;15.474;2023-04-09T10:17:16;98566.44;;;7.40;93.21
27202;BME280;14717;46.924;15.474;2023-04-09T10:19:45;98561.59;;;7.47;92.09
27202;BME280;14717;46.924;15.474;2023-04-09T10:22:17;98557.75;;;7.48;88.54
27202;BME280;14717;46.924;15.474;2023-04-09T10:24:44;98556.81;;;7.85;91.95
27202;BME280;14717;46.924;15.474;2023-04-09T10:27:11;98554.69;;;7.92;87.32
27202;BME280;14717;46.924;15.474;2023-04-09T10:29:42;98549.47;;;8.16;88.07
27202;BME280;14717;46.924;15.474;2023-04-09T10:32:09;98542.66;;;8.24;84.72
27202;BME280;14717;46.924;15.474;2023-04-09T10:34:41;98542.97;;;8.27;84.62
27202;BME280;14717;46.924;15.474;2023-04-09T10:37:13;98546.53;;;8.02;86.16
27202;BME280;14717;46.924;15.474;2023-04-09T10:39:43;98537.56;;;8.37;87.99
27202;BME280;14717;46.924;15.474;2023-04-09T10:42:29;98535.66;;;8.79;82.97
27202;BME280;14717;46.924;15.474;2023-04-09T10:47:39;98530.09;;;8.69;84.54
27202;BME280;14717;46.924;15.474;2023-04-09T10:52:42;98525.41;;;8.33;85.81
27202;BME280;14717;46.924;15.474;2023-04-09T10:55:09;98521.47;;;8.24;81.88
27202;BME280;14717;46.924;15.474;2023-04-09T10:57:35;98522.25;;;8.51;83.64
27202;BME280;14717;46.924;15.474;2023-04-09T11:00:00;98513.94;;;8.46;83.66
27202;BME280;14717;46.924;15.474;2023-04-09T11:05:29;98517.34;;;8.58;81.73
27202;BME280;14717;46.924;15.474;2023-04-09T11:08:06;98520.59;;;8.86;78.75
27202;BME280;14717;46.924;15.474;2023-04-09T11:10:32;98526.94;;;8.91;79.56
27202;BME280;14717;46.924;15.474;2023-04-09T11:12:58;98520.16;;;9.04;78.39
27202;BME280;14717;46.924;15.474;2023-04-09T11:15:23;98521.59;;;9.16;81.81
27202;BME280;14717;46.924;15.474;2023-04-09T11:17:49;98513.19;;;9.47;78.50
27202;BME280;14717;46.924;15.474;2023-04-09T11:20:16;98516.41;;;9.30;77.55
27202;BME280;14717;46.924;15.474;2023-04-09T11:22:43;98510.06;;;9.29;75.89
27202;BME280;14717;46.924;15.474;2023-04-09T11:25:09;98518.34;;;9.29;73.71
27202;BME280;14717;46.924;15.474;2023-04-09T11:27:44;98518.34;;;9.29;74.97
27202;BME280;14717;46.924;15.474;2023-04-09T11:30:10;98513.59;;;8.74;74.49
27202;BME280;14717;46.924;15.474;2023-04-09T11:32:36;98509.91;;;8.58;75.39
27202;BME280;14717;46.924;15.474;2023-04-09T11:35:01;98513.13;;;8.46;76.07
27202;BME280;14717;46.924;15.474;2023-04-09T11:37:27;98510.19;;;8.57;77.06
27202;BME280;14717;46.924;15.474;2023-04-09T11:39:53;98508.50;;;8.97;77.98
27202;BME280;14717;46.924;15.474;2023-04-09T11:42:19;98496.78;;;9.21;74.28
27202;BME280;14717;46.924;15.474;2023-04-09T11:44:47;98505.19;;;9.51;75.53
27202;BME280;14717;46.924;15.474;2023-04-09T11:47:14;98498.13;;;9.84;74.07
27202;BME280;14717;46.924;15.474;2023-04-09T11:49:41;98494.06;;;10.12;75.57
27202;BME280;14717;46.924;15.474;2023-04-09T11:52:07;98502.63;;;10.40;73.85
27202;BME280;14717;46.924;15.474;2023-04-09T11:54:33;98500.72;;;10.35;69.51
27202;BME280;14717;46.924;15.474;2023-04-09T11:57:04;98501.00;;;10.59;73.08
27202;BME280;14717;46.924;15.474;2023-04-09T11:59:31;98500.44;;;10.52;73.84
27202;BME280;14717;46.924;15.474;2023-04-09T12:01:57;98493.78;;;10.77;71.85
27202;BME280;14717;46.924;15.474;2023-04-09T12:04:22;98500.91;;;11.08;71.14
27202;BME280;14717;46.924;15.474;2023-04-09T12:06:48;98491.81;;;10.98;71.51
27202;BME280;14717;46.924;15.474;2023-04-09T12:09:13;98490.69;;;11.03;70.72
27202;BME280;14717;46.924;15.474;2023-04-09T12:11:42;98494.31;;;10.74;68.72
27202;BME280;14717;46.924;15.474;2023-04-09T12:14:12;98497.09;;;10.69;68.40
27202;BME280;14717;46.924;15.474;2023-04-09T12:16:37;98498.22;;;10.44;69.53
27202;BME280;14717;46.924;15.474;2023-04-09T12:19:06;98499.06;;;10.49;68.73
27202;BME280;14717;46.924;15.474;2023-04-09T12:21:51;98501.25;;;10.42;68.25
27202;BME280;14717;46.924;15.474;2023-04-09T12:24:20;98493.53;;;10.34;68.59
27202;BME280;14717;46.924;15.474;2023-04-09T12:26:46;98498.75;;;10.01;70.08
27202;BME280;14717;46.924;15.474;2023-04-09T12:29:16;98489.84;;;9.79;69.59
27202;BME280;14717;46.924;15.474;2023-04-09T12:31:42;98489.56;;;9.76;71.62
27202;BME280;14717;46.924;15.474;2023-04-09T12:34:08;98493.97;;;9.77;70.52
27202;BME280;14717;46.924;15.474;2023-04-09T12:36:33;98490.38;;;9.67;71.98
27202;BME280;14717;46.924;15.474;2023-04-09T12:38:59;98488.34;;;9.42;69.60
27202;BME280;14717;46.924;15.474;2023-04-09T12:41:24;98493.09;;;9.62;72.15
27202;BME280;14717;46.924;15.474;2023-04-09T12:43:50;98491.50;;;9.90;70.59
27202;BME280;14717;46.924;15.474;2023-04-09T12:46:17;98482.75;;;10.08;71.33
27202;BME280;14717;46.924;15.474;2023-04-09T12:48:43;98489.94;;;10.09;71.08
27202;BME280;14717;46.924;15.474;2023-04-09T12:51:09;98492.34;;;9.81;73.11
27202;BME280;14717;46.924;15.474;2023-04-09T12:53:35;98479.44;;;10.06;75.02
27202;BME280;14717;46.924;15.474;2023-04-09T12:56:01;98484.63;;;9.88;70.58
27202;BME280;14717;46.924;15.474;2023-04-09T12:58:27;98489.31;;;9.92;70.85
27202;BME280;14717;46.924;15.474;2023-04-09T13:00:52;98480.25;;;10.12;71.96
27202;BME280;14717;46.924;15.474;2023-04-09T13:03:18;98478.31;;;10.02;69.37
27202;BME280;14717;46.924;15.474;2023-04-09T13:05:44;98472.78;;;10.07;69.32
27202;BME280;14717;46.924;15.474;2023-04-09T13:08:10;98481.94;;;10.37;69.41
27202;BME280;14717;46.924;15.474;2023-04-09T13:10:35;98478.91;;;10.49;67.61
27202;BME280;14717;46.924;15.474;2023-04-09T13:13:01;98479.97;;;10.67;68.42
27202;BME280;14717;46.924;15.474;2023-04-09T13:15:27;98474.63;;;11.10;66.77
27202;BME280;14717;46.924;15.474;2023-04-09T13:17:52;98469.38;;;11.09;64.84